Time;durP1;ratioP1;P1;durP2;ratioP2;P2;SDS_P1;SDS_P2;PMS_P1;PMS_P2;Temp;Humidity;BMP_temperature;BMP_pressure;BME280_temperature;BME280_humidity;BME280_pressure;Samples;Min_cycle;Max_cycle;Signal;HPM_P1;HPM_P2
2023/07/18 00:00:47;;;;;;;4.07;2.10;;;;;;;16.04;82.92;102232.69;6111412;19;20448;-74
2023/07/18 00:02:52;;;;;;;9.30;2.15;;;;;;;16.00;83.20;102237.22;6110396;19;20341;-73
2023/07/18 00:04:58;;;;;;;5.95;2.10;;;;;;;15.97;82.95;102224.09;6109749;19;20006;-73
2023/07/18 00:07:03;;;;;;;6.03;2.38;;;;;;;15.97;82.98;102219.66;6108340;19;20018;-71
2023/07/18 00:09:09;;;;;;;7.10;1.90;;;;;;;15.96;83.22;102217.94;6108423;19;20042;-72
2023/07/18 00:11:17;;;;;;;6.45;2.38;;;;;;;15.96;83.45;102225.03;6109714;19;20018;-74
2023/07/18 00:13:20;;;;;;;7.85;2.20;;;;;;;15.93;83.67;102225.16;6109124;19;20027;-74
2023/07/18 00:15:25;;;;;;;2.47;1.80;;;;;;;15.90;83.82;102225.28;6110192;19;20472;-73
2023/07/18 00:17:29;;;;;;;7.32;2.17;;;;;;;15.87;83.76;102220.97;6111120;19;20011;-74
2023/07/18 00:19:37;;;;;;;;;;;;;;;15.85;84.10;102222.84;6112065;19;20017;-70
2023/07/18 00:21:42;;;;;;;4.30;1.63;;;;;;;15.85;84.18;102214.00;6110396;19;19915;-73
2023/07/18 00:23:48;;;;;;;7.65;2.90;;;;;;;15.80;84.68;102220.38;6109973;19;20030;-73
2023/07/18 00:25:53;;;;;;;5.63;2.13;;;;;;;15.80;84.24;102220.38;6110944;19;20018;-73
2023/07/18 00:28:01;;;;;;;8.20;2.80;;;;;;;15.76;84.36;102216.09;6110478;19;20479;-72
2023/07/18 00:30:09;;;;;;;9.93;3.13;;;;;;;15.76;84.51;102224.03;6110211;19;20018;-71
2023/07/18 00:32:14;;;;;;;10.82;3.20;;;;;;;15.76;84.46;102220.53;6110529;19;20018;-71
2023/07/18 00:34:19;;;;;;;8.45;3.47;;;;;;;15.72;84.36;102216.31;6110531;19;20028;-72
2023/07/18 00:36:25;;;;;;;8.88;3.22;;;;;;;15.68;84.82;102217.31;6110445;19;20022;-71
2023/07/18 00:38:31;;;;;;;7.88;2.78;;;;;;;15.64;85.09;102215.69;6109916;19;20007;-71
2023/07/18 00:40:36;;;;;;;6.35;2.40;;;;;;;15.64;84.85;102218.34;6110104;19;20022;-72
2023/07/18 00:42:42;;;;;;;5.53;2.45;;;;;;;15.63;84.88;102208.66;6110135;19;20010;-71
2023/07/18 00:44:51;;;;;;;6.78;2.85;;;;;;;15.57;84.84;102215.09;6115892;19;20018;-72
2023/07/18 00:46:54;;;;;;;8.43;2.05;;;;;;;15.54;85.24;102223.16;6112200;19;20078;-72
2023/07/18 00:49:03;;;;;;;8.73;2.40;;;;;;;15.58;85.26;102219.44;6116306;19;20010;-72
2023/07/18 00:51:08;;;;;;;4.07;1.85;;;;;;;15.55;85.09;102222.22;6110470;19;20011;-71
2023/07/18 00:53:13;;;;;;;6.15;1.90;;;;;;;15.54;85.20;102223.16;6113792;19;20019;-73
2023/07/18 00:55:19;;;;;;;5.78;2.00;;;;;;;15.51;85.14;102223.28;6114676;19;20361;-71
2023/07/18 00:57:28;;;;;;;6.10;1.88;;;;;;;15.49;85.53;102222.47;6115180;19;20460;-73
2023/07/18 00:59:36;;;;;;;3.63;1.40;;;;;;;15.54;85.80;102228.47;6115535;19;20083;-73
2023/07/18 01:01:44;;;;;;;4.38;1.80;;;;;;;15.51;85.43;102225.94;6116957;19;20443;-74
2023/07/18 01:03:50;;;;;;;6.32;2.17;;;;;;;15.45;85.62;102221.69;6116492;19;20031;-70
2023/07/18 01:05:56;;;;;;;4.85;2.03;;;;;;;15.44;85.77;102227.09;6116436;19;20018;-75
2023/07/18 01:08:03;;;;;;;5.75;2.13;;;;;;;15.41;85.95;102221.91;6115917;19;20099;-74
2023/07/18 01:10:22;;;;;;;7.43;2.50;;;;;;;15.32;85.87;102212.50;6115801;19;20532;-72
2023/07/18 01:12:28;;;;;;;5.82;1.90;;;;;;;15.30;85.58;102211.72;6115485;19;20002;-74
2023/07/18 01:14:33;;;;;;;5.10;2.05;;;;;;;15.27;86.45;102206.53;6118156;19;20479;-72
2023/07/18 01:16:38;;;;;;;5.40;1.80;;;;;;;15.25;86.35;102206.59;6118537;19;20005;-71
2023/07/18 01:18:46;;;;;;;6.53;1.83;;;;;;;15.18;86.59;102209.53;6117149;19;20024;-71
2023/07/18 01:20:52;;;;;;;5.88;2.30;;;;;;;15.18;86.76;102209.53;6117059;19;20015;-70
2023/07/18 01:23:03;;;;;;;3.55;2.00;;;;;;;15.21;87.10;102204.97;6117540;19;20011;-70
2023/07/18 01:25:07;;;;;;;6.22;1.92;;;;;;;15.22;87.07;102211.13;6112817;19;20015;-71
2023/07/18 01:27:12;;;;;;;6.57;2.45;;;;;;;15.13;86.25;102204.41;6115130;19;20038;-72
2023/07/18 01:29:17;;;;;;;5.50;2.00;;;;;;;15.10;86.42;102199.22;6118234;19;20040;-71
2023/07/18 01:31:22;;;;;;;7.05;2.30;;;;;;;15.07;86.57;102202.00;6117437;19;20439;-71
2023/07/18 01:33:28;;;;;;;6.20;1.90;;;;;;;15.03;86.12;102198.59;6115762;19;20014;-71
2023/07/18 01:35:33;;;;;;;7.20;2.00;;;;;;;15.00;86.83;102192.56;6116148;19;20467;-72
2023/07/18 01:37:36;;;;;;;4.43;1.75;;;;;;;14.99;87.16;102198.78;6116144;19;20376;-73
2023/07/18 01:39:44;;;;;;;5.50;2.38;;;;;;;15.01;86.87;102194.28;6114924;19;20345;-72
2023/07/18 01:41:49;;;;;;;5.10;2.55;;;;;;;15.01;86.84;102191.63;6113610;19;20049;-73
2023/07/18 01:43:54;;;;;;;3.97;2.35;;;;;;;15.01;86.80;102186.31;6116590;19;20010;-73
2023/07/18 01:46:03;;;;;;;5.00;2.03;;;;;;;15.01;86.61;102181.03;6116675;19;20014;-72
2023/07/18 01:48:08;;;;;;;4.20;2.05;;;;;;;14.98;86.68;102181.16;6115742;19;20087;-73
2023/07/18 01:50:13;;;;;;;6.32;2.35;;;;;;;14.97;86.29;102179.44;6114983;19;20069;-72
2023/07/18 01:52:18;;;;;;;5.00;2.15;;;;;;;14.95;86.40;102176.84;6113871;19;20011;-73
2023/07/18 01:54:23;;;;;;;6.32;2.33;;;;;;;14.95;86.67;102184.78;6115224;19;20078;-73
2023/07/18 01:56:31;;;;;;;9.35;2.35;;;;;;;14.91;86.49;102189.34;6113458;19;20464;-73
2023/07/18 01:58:36;;;;;;;5.47;2.22;;;;;;;14.89;86.67;102185.88;6112202;19;20511;-73
2023/07/18 02:00:41;;;;;;;7.75;2.45;;;;;;;14.85;86.45;102183.38;6113215;19;20007;-73
2023/07/18 02:02:56;;;;;;;5.70;2.08;;;;;;;14.82;86.86;102179.06;6114862;19;20566;-71
2023/07/18 02:05:04;;;;;;;5.65;2.03;;;;;;;14.81;86.73;102176.50;6115891;19;20439;-72
2023/07/18 02:07:11;;;;;;;7.05;2.22;;;;;;;14.77;86.80;102178.41;6112256;19;20043;-71
2023/07/18 02:09:16;;;;;;;8.65;2.60;;;;;;;14.77;87.15;102175.75;6114379;19;20082;-71
2023/07/18 02:11:21;;;;;;;8.63;2.35;;;;;;;14.79;86.90;102179.19;6111110;19;20014;-72
2023/07/18 02:13:29;;;;;;;8.43;2.58;;;;;;;14.76;86.99;102181.94;6112263;19;20021;-72
2023/07/18 02:15:36;;;;;;;5.68;2.30;;;;;;;14.78;87.13;102172.19;6112692;19;20011;-72
2023/07/18 02:17:39;;;;;;;4.50;2.10;;;;;;;14.71;86.52;102168.88;6111563;19;20011;-73
2023/07/18 02:19:44;;;;;;;7.68;2.35;;;;;;;14.73;87.06;102171.50;6112211;19;20129;-72
2023/07/18 02:21:46;;;;;;;5.88;1.95;;;;;;;14.73;87.43;102160.91;6113169;19;20036;-72
2023/07/18 02:23:51;;;;;;;4.38;1.85;;;;;;;14.75;86.81;102160.84;6112439;19;20047;-72
2023/07/18 02:25:56;;;;;;;6.03;2.22;;;;;;;14.69;86.01;102162.81;6110057;19;20034;-72
2023/07/18 02:28:03;;;;;;;5.55;2.13;;;;;;;14.71;87.13;102168.88;6113318;19;20025;-72
2023/07/18 02:30:11;;;;;;;6.85;2.42;;;;;;;14.67;87.03;102155.84;6112367;19;20023;-73
2023/07/18 02:32:17;;;;;;;6.85;2.50;;;;;;;14.66;86.90;102164.69;6112136;19;20177;-71
2023/07/18 02:34:22;;;;;;;6.28;2.30;;;;;;;14.64;87.17;102161.22;6112802;19;20018;-72
2023/07/18 02:36:28;;;;;;;5.45;2.15;;;;;;;14.64;87.31;102169.16;6112951;19;20074;-71
2023/07/18 02:38:33;;;;;;;5.05;2.28;;;;;;;14.60;86.88;102167.56;6111184;19;20094;-71
2023/07/18 02:40:38;;;;;;;4.03;2.20;;;;;;;14.58;87.62;102166.75;6112549;19;20334;-70
2023/07/18 02:42:43;;;;;;;4.68;2.55;;;;;;;14.59;87.85;102168.50;6112760;19;20020;-71
2023/07/18 02:44:49;;;;;;;5.65;2.17;;;;;;;14.60;87.25;102159.63;6111993;19;20035;-71
2023/07/18 02:46:59;;;;;;;6.35;2.28;;;;;;;14.57;87.37;102163.25;6111361;19;20022;-71
2023/07/18 02:49:04;;;;;;;5.40;2.50;;;;;;;14.56;87.63;102163.28;6109019;19;20034;-71
2023/07/18 02:51:10;;;;;;;6.80;2.03;;;;;;;14.58;87.97;102166.75;6110603;19;20011;-71
2023/07/18 02:53:15;;;;;;;7.30;2.20;;;;;;;14.56;87.64;102163.28;6111521;19;20014;-71
2023/07/18 02:55:17;;;;;;;6.05;2.40;;;;;;;14.52;87.58;102166.94;6112900;19;20022;-72
2023/07/18 02:57:23;;;;;;;5.30;2.30;;;;;;;14.50;88.41;102167.84;6111498;19;20385;-72
2023/07/18 02:59:28;;;;;;;5.25;2.45;;;;;;;14.59;87.95;102179.06;6111857;19;20006;-71
2023/07/18 03:01:34;;;;;;;7.47;2.47;;;;;;;14.60;88.18;102175.50;6112165;19;20022;-70
2023/07/18 03:03:42;;;;;;;6.38;2.92;;;;;;;14.60;87.81;102172.84;6111850;19;20086;-70
2023/07/18 03:05:47;;;;;;;7.57;2.47;;;;;;;14.57;87.30;102175.63;6111894;19;20456;-70
2023/07/18 03:07:54;;;;;;;6.13;2.30;;;;;;;14.59;87.81;102166.72;6106942;19;20364;-70
2023/07/18 03:09:59;;;;;;;8.15;2.65;;;;;;;14.62;88.26;102168.38;6111308;19;20019;-70
2023/07/18 03:12:06;;;;;;;5.80;2.40;;;;;;;14.60;87.85;102168.41;6111704;19;20019;-72
2023/07/18 03:14:12;;;;;;;5.55;2.38;;;;;;;14.57;87.49;102167.69;6111991;19;20058;-72
2023/07/18 03:16:17;;;;;;;6.35;2.20;;;;;;;14.55;87.60;102170.38;6110718;19;20015;-72
2023/07/18 03:18:22;;;;;;;8.00;2.70;;;;;;;14.60;87.74;102172.84;6110115;19;20027;-73
2023/07/18 03:20:29;;;;;;;5.25;2.50;;;;;;;14.53;87.37;102164.25;6110699;19;20026;-71
2023/07/18 03:22:34;;;;;;;10.98;3.03;;;;;;;14.52;87.81;102159.00;6110799;19;20483;-71
2023/07/18 03:24:40;;;;;;;4.03;2.20;;;;;;;14.49;87.49;102155.53;6111096;19;20129;-71
2023/07/18 03:26:45;;;;;;;6.38;2.70;;;;;;;14.48;87.62;102164.41;6110275;19;20377;-71
2023/07/18 03:28:50;;;;;;;5.80;2.13;;;;;;;14.47;87.54;102160.03;6103857;19;20013;-73
2023/07/18 03:30:55;;;;;;;6.82;2.80;;;;;;;14.46;87.69;102166.25;6110199;19;20070;-72
2023/07/18 03:33:02;;;;;;;7.28;2.67;;;;;;;14.47;87.54;102161.81;6107972;19;20106;-71
2023/07/18 03:35:09;;;;;;;5.72;2.50;;;;;;;14.42;87.50;102167.25;6107562;19;20019;-71
2023/07/18 03:37:16;;;;;;;7.45;2.67;;;;;;;14.44;87.69;102173.38;6091073;19;20010;-70
2023/07/18 03:39:21;;;;;;;6.32;2.10;;;;;;;14.47;87.52;102167.97;6110948;19;20429;-70
2023/07/18 03:41:28;;;;;;;10.82;2.72;;;;;;;14.44;87.47;102165.44;6111201;19;20101;-72
2023/07/18 03:43:33;;;;;;;7.07;2.60;;;;;;;14.43;87.66;102163.72;6113002;19;20515;-70
2023/07/18 03:45:40;;;;;;;7.60;2.22;;;;;;;14.45;87.70;102166.28;6110483;19;20022;-71
2023/07/18 03:47:46;;;;;;;8.48;2.95;;;;;;;14.40;87.45;102160.28;6111940;19;20102;-72
2023/07/18 03:49:49;;;;;;;5.03;2.42;;;;;;;14.39;87.68;102164.72;6112423;19;20050;-72
2023/07/18 03:51:54;;;;;;;7.15;2.75;;;;;;;14.37;87.78;102158.63;6110579;19;20022;-72
2023/07/18 03:54:03;;;;;;;7.10;2.78;;;;;;;14.35;88.06;102159.59;6109106;19;20071;-72
2023/07/18 03:56:09;;;;;;;9.52;3.08;;;;;;;14.33;88.26;102159.66;6110427;19;20014;-72
2023/07/18 03:58:14;;;;;;;10.75;3.28;;;;;;;14.37;88.13;102160.41;6110566;19;20038;-72
2023/07/18 04:00:20;;;;;;;10.27;3.17;;;;;;;14.36;88.12;102170.13;6106737;19;20115;-72
2023/07/18 04:02:26;;;;;;;7.43;2.78;;;;;;;14.37;88.18;102170.97;6111744;19;20011;-72
2023/07/18 04:04:33;;;;;;;10.93;3.42;;;;;;;14.35;88.07;102171.06;6111498;19;20014;-72
2023/07/18 04:06:41;;;;;;;8.23;2.88;;;;;;;14.36;88.62;102164.84;6112497;19;20441;-72
2023/07/18 04:08:46;;;;;;;9.15;3.17;;;;;;;14.35;88.40;102160.47;6111140;19;20011;-72
2023/07/18 04:10:53;;;;;;;11.48;3.50;;;;;;;14.35;88.62;102163.13;6109821;19;20015;-72
2023/07/18 04:12:58;;;;;;;10.00;3.47;;;;;;;14.35;88.80;102170.16;6109617;19;20003;-71
2023/07/18 04:15:04;;;;;;;13.73;4.13;;;;;;;14.37;88.55;102157.75;6107419;19;20014;-71
2023/07/18 04:17:09;;;;;;;14.07;3.67;;;;;;;14.37;88.41;102160.41;6107930;19;20358;-71
2023/07/18 04:19:15;;;;;;;10.57;3.75;;;;;;;14.31;88.85;102152.69;6115152;19;20506;-73
2023/07/18 04:21:20;;;;;;;9.75;2.80;;;;;;;14.31;89.01;102161.50;6116910;19;20490;-72
2023/07/18 04:23:25;;;;;;;9.77;3.90;;;;;;;14.35;89.29;102163.13;6117326;19;20106;-72
2023/07/18 04:25:36;;;;;;;10.43;3.38;;;;;;;14.34;89.27;102148.16;6116959;19;20481;-72
2023/07/18 04:27:44;;;;;;;12.23;3.53;;;;;;;14.36;89.12;102151.63;6115765;19;20010;-70
2023/07/18 04:29:46;;;;;;;12.57;3.75;;;;;;;14.33;89.47;102149.09;6116864;19;20034;-70
2023/07/18 04:31:51;;;;;;;11.73;3.38;;;;;;;14.37;89.44;102142.75;6118129;19;20060;-72
2023/07/18 04:33:56;;;;;;;11.82;4.20;;;;;;;14.40;89.19;102158.53;6117145;19;20458;-70
2023/07/18 04:36:01;;;;;;;11.13;2.90;;;;;;;14.42;89.72;102147.88;6117496;19;20048;-70
2023/07/18 04:38:09;;;;;;;13.48;3.63;;;;;;;14.44;89.69;102141.63;6116871;19;20059;-72
2023/07/18 04:40:15;;;;;;;14.05;3.85;;;;;;;14.48;89.76;102147.66;6118098;19;20023;-71
2023/07/18 04:42:20;;;;;;;10.30;3.55;;;;;;;14.55;89.26;102148.34;6117663;19;20059;-71
2023/07/18 04:44:27;;;;;;;11.20;3.70;;;;;;;14.60;89.13;102149.03;6116564;19;20015;-72
2023/07/18 04:46:32;;;;;;;10.60;3.67;;;;;;;14.62;89.45;102141.91;6117854;19;20011;-72
2023/07/18 04:48:38;;;;;;;9.32;3.38;;;;;;;14.68;89.19;102147.84;6117011;19;20003;-70
2023/07/18 04:50:47;;;;;;;11.82;3.65;;;;;;;14.72;89.30;102143.31;6117677;19;20014;-70
2023/07/18 04:52:53;;;;;;;8.95;3.33;;;;;;;14.85;88.93;102133.09;6114894;19;20014;-70
2023/07/18 04:54:58;;;;;;;11.27;3.80;;;;;;;14.98;88.53;102139.69;6113371;19;20467;-70
2023/07/18 04:57:03;;;;;;;10.25;3.70;;;;;;;15.13;87.94;102135.56;6112674;19;20018;-70
2023/07/18 04:59:10;;;;;;;8.82;3.47;;;;;;;15.21;87.71;102130.84;6114663;19;20352;-70
2023/07/18 05:01:18;;;;;;;11.90;4.10;;;;;;;15.43;86.99;102129.97;6113996;19;20022;-71
2023/07/18 05:03:23;;;;;;;9.30;3.35;;;;;;;15.61;86.40;102139.81;6114922;19;20034;-71
2023/07/18 05:05:29;;;;;;;11.80;3.85;;;;;;;15.59;85.81;102126.66;6117572;19;20356;-71
2023/07/18 05:07:34;;;;;;;15.73;4.07;;;;;;;15.52;86.27;102134.91;6114776;19;20029;-71
2023/07/18 05:09:39;;;;;;;8.68;3.80;;;;;;;15.71;85.65;102127.97;6114183;19;20011;-72
2023/07/18 05:11:45;;;;;;;14.27;4.03;;;;;;;15.80;85.15;102122.28;6115083;19;20026;-71
2023/07/18 05:13:50;;;;;;;8.95;3.30;;;;;;;16.03;84.26;102115.13;6114609;19;20007;-71
2023/07/18 05:15:55;;;;;;;11.48;3.70;;;;;;;16.06;84.40;102120.31;6113114;19;20003;-73
2023/07/18 05:18:04;;;;;;;9.70;3.55;;;;;;;16.04;83.88;102113.38;6116474;19;20342;-71
2023/07/18 05:20:12;;;;;;;11.07;3.35;;;;;;;15.93;84.17;102125.28;6116866;19;20019;-71
2023/07/18 05:22:17;;;;;;;11.80;4.13;;;;;;;15.82;84.62;102121.34;6117706;19;20038;-71
2023/07/18 05:24:24;;;;;;;8.25;3.85;;;;;;;15.89;84.44;102121.03;6116401;19;20421;-71
2023/07/18 05:26:29;;;;;;;10.40;3.63;;;;;;;15.86;84.69;102126.47;6116681;19;20086;-72
2023/07/18 05:28:34;;;;;;;11.23;3.45;;;;;;;16.07;84.23;102132.66;6115220;19;20340;-72
2023/07/18 05:30:39;;;;;;;12.57;4.03;;;;;;;16.48;82.99;102131.75;6113317;19;20017;-72
2023/07/18 05:32:45;;;;;;;12.20;3.88;;;;;;;16.89;81.86;102135.22;6115540;19;20397;-72
2023/07/18 05:34:53;;;;;;;11.10;4.57;;;;;;;16.92;81.02;102131.56;6114203;19;20480;-72
2023/07/18 05:36:58;;;;;;;13.27;4.05;;;;;;;16.77;81.81;102139.31;6114514;19;20082;-73
2023/07/18 05:39:03;;;;;;;14.35;3.50;;;;;;;16.76;81.72;102134.88;6115146;19;20031;-71
2023/07/18 05:41:08;;;;;;;10.20;3.60;;;;;;;16.98;81.96;102137.47;6112256;19;20006;-72
2023/07/18 05:43:13;;;;;;;11.55;3.83;;;;;;;16.95;81.66;102134.91;6114718;19;20077;-72
2023/07/18 05:45:18;;;;;;;11.25;3.47;;;;;;;17.01;80.80;102137.31;6116013;19;20019;-71
2023/07/18 05:47:23;;;;;;;15.75;4.63;;;;;;;16.88;81.49;102142.31;6113195;19;20027;-73
2023/07/18 05:49:29;;;;;;;14.05;3.90;;;;;;;16.76;82.19;102142.00;6114140;19;20055;-73
2023/07/18 05:51:37;;;;;;;13.73;4.05;;;;;;;16.76;82.13;102144.66;6114010;19;20397;-73
2023/07/18 05:53:42;;;;;;;11.90;3.75;;;;;;;17.25;81.24;102139.75;6113410;19;20420;-71
2023/07/18 05:55:47;;;;;;;14.52;4.22;;;;;;;17.43;79.55;102144.16;6112180;19;20069;-71
2023/07/18 05:57:52;;;;;;;10.52;4.05;;;;;;;17.84;78.72;102135.97;6114059;19;20014;-71
2023/07/18 05:59:59;;;;;;;15.85;4.28;;;;;;;17.84;78.36;102138.63;6116206;19;20019;-71
2023/07/18 06:02:06;;;;;;;17.52;4.75;;;;;;;17.83;78.02;102136.91;6112753;19;20018;-72
2023/07/18 06:04:15;;;;;;;15.48;5.35;;;;;;;17.70;78.81;102136.63;6113612;19;20020;-71
2023/07/18 06:06:20;;;;;;;13.82;4.10;;;;;;;18.08;77.78;102146.28;6113067;19;20086;-71
2023/07/18 06:08:28;;;;;;;15.27;4.88;;;;;;;18.50;76.25;102148.50;6109821;19;20034;-72
2023/07/18 06:10:33;;;;;;;15.98;6.05;;;;;;;18.64;75.87;102147.78;6112486;19;20011;-72
2023/07/18 06:12:41;;;;;;;18.35;5.88;;;;;;;18.65;75.62;102149.50;6111166;19;20097;-71
2023/07/18 06:14:46;;;;;;;13.35;5.00;;;;;;;18.92;75.02;102159.63;6111626;19;20038;-71
2023/07/18 06:16:52;;;;;;;18.80;5.43;;;;;;;18.57;75.61;102159.72;6112650;19;20479;-71
2023/07/18 06:18:59;;;;;;;15.98;5.90;;;;;;;18.94;75.38;102163.09;6112755;19;20011;-71
2023/07/18 06:21:04;;;;;;;14.18;5.03;;;;;;;19.12;74.93;102161.22;6109389;19;20018;-71
2023/07/18 06:23:10;;;;;;;22.88;6.35;;;;;;;19.04;74.28;102158.97;6113406;19;20014;-71
2023/07/18 06:25:18;;;;;;;15.40;5.82;;;;;;;19.43;73.70;102157.66;6110118;19;20040;-71
2023/07/18 06:27:26;;;;;;;14.70;6.40;;;;;;;18.94;74.62;102160.44;6112945;19;21434;-72
2023/07/18 06:29:32;;;;;;;13.35;6.07;;;;;;;19.06;74.00;102167.72;6114510;19;20006;-71
2023/07/18 06:31:40;;;;;;;14.75;6.55;;;;;;;18.70;75.50;102170.56;6113364;19;20051;-71
2023/07/18 06:33:45;;;;;;;18.15;6.65;;;;;;;19.44;74.46;102170.06;6112388;19;20047;-72
2023/07/18 06:35:54;;;;;;;20.92;8.75;;;;;;;19.51;72.85;102160.78;6111564;19;20368;-73
2023/07/18 06:37:59;;;;;;;20.50;7.43;;;;;;;20.19;71.03;102165.69;6114716;19;20481;-72
2023/07/18 06:40:04;;;;;;;18.27;7.45;;;;;;;19.78;71.06;102174.34;6112837;19;20042;-71
2023/07/18 06:42:14;;;;;;;19.15;9.45;;;;;;;19.36;72.91;102169.66;6110566;19;20018;-72
2023/07/18 06:44:19;;;;;;;19.00;8.15;;;;;;;19.48;72.23;102163.59;6111523;19;20025;-69
2023/07/18 06:46:24;;;;;;;21.20;8.85;;;;;;;19.72;73.12;102162.25;6111515;19;20013;-71
2023/07/18 06:48:29;;;;;;;17.23;9.18;;;;;;;19.93;71.37;102153.91;6113870;19;20017;-72
2023/07/18 06:50:35;;;;;;;17.95;8.80;;;;;;;20.51;70.40;102153.09;6112450;19;20038;-71
2023/07/18 06:52:41;;;;;;;19.25;8.93;;;;;;;20.55;68.80;102156.44;6112723;19;20032;-71
2023/07/18 06:54:46;;;;;;;15.85;9.15;;;;;;;19.91;70.62;102154.00;6112394;19;20063;-72
2023/07/18 06:56:51;;;;;;;22.45;9.38;;;;;;;20.38;69.18;102150.31;6111068;19;20081;-73
2023/07/18 06:58:58;;;;;;;22.90;10.25;;;;;;;20.50;69.72;102147.81;6112529;19;20025;-71
2023/07/18 07:01:04;;;;;;;16.60;10.05;;;;;;;19.99;70.57;102150.91;6111642;19;20103;-71
2023/07/18 07:03:11;;;;;;;22.27;9.13;;;;;;;20.48;69.64;102147.06;6109997;19;20062;-70
2023/07/18 07:05:16;;;;;;;19.33;8.50;;;;;;;20.88;67.52;102148.16;6109948;19;20015;-69
2023/07/18 07:07:21;;;;;;;19.67;8.88;;;;;;;21.16;67.38;102149.03;6112541;19;20509;-70
2023/07/18 07:09:26;;;;;;;18.27;8.48;;;;;;;20.69;69.06;102148.44;6111552;19;20037;-70
2023/07/18 07:11:31;;;;;;;17.70;9.77;;;;;;;21.26;67.29;102139.47;6112174;19;20050;-69
2023/07/18 07:13:40;;;;;;;18.48;8.70;;;;;;;20.79;67.68;102132.69;6111173;19;20011;-69
2023/07/18 07:15:48;;;;;;;19.77;9.68;;;;;;;20.28;69.67;102137.63;6111941;19;20307;-69
2023/07/18 07:17:53;;;;;;;22.48;10.20;;;;;;;20.54;69.76;102141.38;6111197;19;20025;-70
2023/07/18 07:19:58;;;;;;;24.25;9.70;;;;;;;21.01;69.17;102141.06;6111438;19;20030;-71
2023/07/18 07:22:03;;;;;;;18.33;8.90;;;;;;;21.07;68.37;102141.63;6110997;19;20019;-69
2023/07/18 07:24:09;;;;;;;22.52;10.32;;;;;;;21.33;67.90;102143.47;6108933;19;20010;-69
2023/07/18 07:26:15;;;;;;;27.85;12.00;;;;;;;20.64;68.75;102147.00;6110577;19;20007;-71
2023/07/18 07:28:22;;;;;;;24.27;10.40;;;;;;;20.89;68.52;102139.16;6112233;19;20468;-69
2023/07/18 07:30:28;;;;;;;19.23;11.43;;;;;;;20.49;69.12;102144.31;6110964;19;20033;-71
2023/07/18 07:32:35;;;;;;;20.75;10.57;;;;;;;21.15;68.16;102140.19;6112239;19;20451;-69
2023/07/18 07:34:41;;;;;;;17.27;10.00;;;;;;;20.72;68.49;102142.91;6109890;19;20006;-69
2023/07/18 07:36:50;;;;;;;21.05;10.13;;;;;;;21.02;67.81;102142.78;6111339;19;20028;-70
2023/07/18 07:38:55;;;;;;;20.00;11.20;;;;;;;21.63;66.20;102135.25;6109967;19;20023;-71
2023/07/18 07:41:00;;;;;;;20.38;11.52;;;;;;;21.63;65.65;102140.59;6112654;19;20038;-68
2023/07/18 07:43:05;;;;;;;18.45;11.00;;;;;;;21.84;65.31;102137.47;6104654;19;20397;-70
2023/07/18 07:45:14;;;;;;;17.63;10.55;;;;;;;22.25;65.10;102136.47;6112413;19;20018;-68
2023/07/18 07:47:19;;;;;;;18.40;11.35;;;;;;;22.07;65.08;102135.91;6113167;19;20034;-70
2023/07/18 07:49:28;;;;;;;17.25;11.18;;;;;;;21.84;64.91;102132.13;6111200;19;20071;-70
2023/07/18 07:51:33;;;;;;;19.83;12.50;;;;;;;21.88;65.13;102131.81;6111248;19;20077;-69
2023/07/18 07:53:39;;;;;;;25.25;13.02;;;;;;;20.95;67.27;102132.56;6117792;19;20021;-69
2023/07/18 07:55:44;;;;;;;17.05;11.30;;;;;;;20.96;67.15;102135.16;6123115;19;20479;-69
2023/07/18 07:57:49;;;;;;;21.92;12.02;;;;;;;20.45;69.03;102129.41;6121599;19;20427;-70
2023/07/18 07:59:55;;;;;;;21.90;12.35;;;;;;;21.62;67.55;102127.34;6124000;19;20022;-70
2023/07/18 08:02:00;;;;;;;24.05;13.38;;;;;;;22.29;64.51;102125.44;6122405;19;20314;-71
2023/07/18 08:04:06;;;;;;;20.50;12.27;;;;;;;21.58;65.75;102126.69;6121891;19;20010;-70
2023/07/18 08:06:14;;;;;;;23.30;12.20;;;;;;;21.35;65.58;102130.84;6122945;19;20017;-70
2023/07/18 08:08:20;;;;;;;25.13;12.80;;;;;;;21.37;66.29;102136.94;6121157;19;20014;-70
2023/07/18 08:10:25;;;;;;;20.10;12.10;;;;;;;21.33;66.55;102134.56;6120743;19;20028;-70
2023/07/18 08:12:28;;;;;;;18.10;12.30;;;;;;;22.05;64.94;102130.66;6121143;19;20032;-69
2023/07/18 08:14:34;;;;;;;19.80;12.27;;;;;;;23.01;61.95;102127.50;6121681;19;20010;-70
2023/07/18 08:16:40;;;;;;;20.77;11.90;;;;;;;23.47;59.74;102123.28;6119773;19;20018;-70
2023/07/18 08:18:46;;;;;;;17.27;10.98;;;;;;;22.14;62.60;102122.00;6123016;19;20006;-70
2023/07/18 08:20:51;;;;;;;18.92;12.25;;;;;;;22.41;63.36;102126.41;6123911;19;20471;-70
2023/07/18 08:22:58;;;;;;;19.33;12.40;;;;;;;22.16;62.65;102131.72;6122648;19;20023;-70
2023/07/18 08:25:04;;;;;;;23.10;13.75;;;;;;;21.76;64.31;102127.28;6120455;19;20011;-70
2023/07/18 08:27:10;;;;;;;23.33;12.45;;;;;;;22.56;62.33;102135.19;6121510;19;20128;-70
2023/07/18 08:29:15;;;;;;;19.83;12.80;;;;;;;22.62;61.56;102128.53;6123528;19;20011;-71
2023/07/18 08:31:20;;;;;;;19.45;14.05;;;;;;;22.44;62.17;102128.03;6120189;19;20018;-71
2023/07/18 08:33:25;;;;;;;18.17;13.07;;;;;;;22.67;61.76;102126.38;6121743;19;20503;-72
2023/07/18 08:35:30;;;;;;;20.10;12.57;;;;;;;22.17;62.32;102128.97;6122909;19;20019;-71
2023/07/18 08:37:36;;;;;;;19.17;12.05;;;;;;;22.11;62.19;102124.84;6121847;19;20110;-71
2023/07/18 08:39:43;;;;;;;18.88;12.25;;;;;;;21.90;64.32;102124.50;6121587;19;20090;-71
2023/07/18 08:41:49;;;;;;;17.52;12.30;;;;;;;22.53;62.21;102124.69;6119610;19;20336;-73
2023/07/18 08:43:54;;;;;;;18.02;11.30;;;;;;;22.30;61.99;102112.91;6120749;19;20014;-73
2023/07/18 08:46:03;;;;;;;19.27;10.57;;;;;;;22.76;62.40;102115.00;6122156;19;20353;-72
2023/07/18 08:48:12;;;;;;;19.73;10.55;;;;;;;22.39;61.98;102116.78;6123074;19;20013;-72
2023/07/18 08:50:17;;;;;;;20.55;11.43;;;;;;;22.48;62.05;102118.78;6122679;19;20022;-72
2023/07/18 08:52:22;;;;;;;17.45;10.35;;;;;;;23.12;60.57;102116.03;6121132;19;20007;-72
2023/07/18 08:54:28;;;;;;;19.35;10.38;;;;;;;23.37;59.63;102123.09;6119936;19;20014;-72
2023/07/18 08:56:40;;;;;;;19.17;10.00;;;;;;;23.49;57.62;102124.03;6121027;19;20015;-72
2023/07/18 08:58:45;;;;;;;16.52;9.07;;;;;;;23.50;58.53;102121.22;6121014;19;20050;-72
2023/07/18 09:00:50;;;;;;;15.13;7.97;;;;;;;23.67;57.80;102120.81;6121301;19;20023;-72
2023/07/18 09:02:55;;;;;;;16.25;7.80;;;;;;;23.91;56.55;102108.31;6122328;19;20006;-72
2023/07/18 09:04:59;;;;;;;17.05;7.78;;;;;;;23.31;58.50;102111.00;6119284;19;20502;-72
2023/07/18 09:07:07;;;;;;;13.40;6.60;;;;;;;23.62;57.75;102109.56;6112960;19;20029;-70
2023/07/18 09:09:16;;;;;;;17.15;7.78;;;;;;;23.99;56.73;102104.09;6115986;19;20114;-71
2023/07/18 09:11:22;;;;;;;14.25;7.85;;;;;;;23.97;56.58;102103.34;6115656;19;20030;-72
2023/07/18 09:13:40;;;;;;;13.50;7.55;;;;;;;23.57;57.27;102105.53;6114814;19;20081;-72
2023/07/18 09:15:47;;;;;;;12.27;5.95;;;;;;;23.86;55.74;102106.03;6113583;19;20015;-72
2023/07/18 09:17:56;;;;;;;11.10;5.45;;;;;;;24.50;54.82;102101.00;6113310;19;20010;-70
2023/07/18 09:20:08;;;;;;;15.93;5.90;;;;;;;24.74;52.68;102091.94;6113829;19;20010;-73
2023/07/18 09:22:15;;;;;;;12.82;6.13;;;;;;;24.68;53.78;102093.28;6116655;19;20014;-70
2023/07/18 09:24:20;;;;;;;15.65;7.07;;;;;;;25.26;53.31;102092.22;6113987;19;20015;-71
2023/07/18 09:26:25;;;;;;;13.13;5.88;;;;;;;24.77;52.49;102097.06;6115885;19;20011;-74
2023/07/18 09:28:34;;;;;;;16.10;6.35;;;;;;;24.04;54.74;102091.16;6115540;19;20348;-73
2023/07/18 09:30:40;;;;;;;14.25;5.70;;;;;;;23.96;54.79;102098.09;6114068;19;20039;-72
2023/07/18 09:32:46;;;;;;;14.65;6.15;;;;;;;24.43;54.34;102088.97;6114714;19;20014;-72
2023/07/18 09:34:55;;;;;;;11.48;5.95;;;;;;;24.37;53.27;102094.00;6115967;19;20022;-72
2023/07/18 09:37:03;;;;;;;16.58;4.95;;;;;;;24.43;54.28;102083.59;6115436;19;20011;-73
2023/07/18 09:39:11;;;;;;;11.57;5.03;;;;;;;24.29;54.36;102086.56;6112176;19;20023;-72
2023/07/18 09:41:19;;;;;;;14.00;5.28;;;;;;;24.42;53.83;102086.44;6113253;19;20007;-72